sensor_id;sensor_type;location;lat;lon;timestamp;temperature;humidity
18894;DHT22;9579;49.488;8.226;2023-02-13T06:05:17;3.20;99.90
18894;DHT22;9579;49.488;8.226;2023-02-13T06:10:58;2.90;99.90
18894;DHT22;9579;49.488;8.226;2023-02-13T06:13:45;2.40;99.90
18894;DHT22;9579;49.488;8.226;2023-02-13T06:16:32;3.20;99.90
18894;DHT22;9579;49.488;8.226;2023-02-13T06:22:02;3.10;99.90
18894;DHT22;9579;49.488;8.226;2023-02-13T06:24:49;3.20;99.90
18894;DHT22;9579;49.488;8.226;2023-02-13T06:30:29;3.00;99.90
18894;DHT22;9579;49.488;8.226;2023-02-13T06:33:17;3.60;99.90
18894;DHT22;9579;49.488;8.226;2023-02-13T06:36:04;3.10;99.90
18894;DHT22;9579;49.488;8.226;2023-02-13T06:38:53;2.90;99.90
18894;DHT22;9579;49.488;8.226;2023-02-13T06:41:40;3.90;99.90
18894;DHT22;9579;49.488;8.226;2023-02-13T06:44:27;3.60;99.90
18894;DHT22;9579;49.488;8.226;2023-02-13T06:47:14;3.10;99.90
18894;DHT22;9579;49.488;8.226;2023-02-13T06:50:01;3.00;99.90
18894;DHT22;9579;49.488;8.226;2023-02-13T06:52:50;3.00;99.90
18894;DHT22;9579;49.488;8.226;2023-02-13T06:55:39;3.10;99.90
18894;DHT22;9579;49.488;8.226;2023-02-13T06:58:26;3.20;99.90
18894;DHT22;9579;49.488;8.226;2023-02-13T07:01:13;3.30;99.90
18894;DHT22;9579;49.488;8.226;2023-02-13T07:04:00;3.20;99.90
18894;DHT22;9579;49.488;8.226;2023-02-13T07:06:47;3.20;99.90
18894;DHT22;9579;49.488;8.226;2023-02-13T07:09:34;3.20;99.90
18894;DHT22;9579;49.488;8.226;2023-02-13T07:12:23;3.20;99.90
18894;DHT22;9579;49.488;8.226;2023-02-13T07:15:10;3.20;99.90
18894;DHT22;9579;49.488;8.226;2023-02-13T07:17:58;3.20;99.90
18894;DHT22;9579;49.488;8.226;2023-02-13T07:20:45;3.20;99.90
18894;DHT22;9579;49.488;8.226;2023-02-13T07:23:32;3.30;99.90
18894;DHT22;9579;49.488;8.226;2023-02-13T07:26:20;3.30;99.90
18894;DHT22;9579;49.488;8.226;2023-02-13T07:29:08;3.50;99.90
18894;DHT22;9579;49.488;8.226;2023-02-13T07:31:56;3.50;99.90
18894;DHT22;9579;49.488;8.226;2023-02-13T07:34:43;3.70;99.90
18894;DHT22;9579;49.488;8.226;2023-02-13T07:37:30;3.90;99.90
18894;DHT22;9579;49.488;8.226;2023-02-13T07:40:18;4.10;99.90
18894;DHT22;9579;49.488;8.226;2023-02-13T07:43:05;4.30;99.90
18894;DHT22;9579;49.488;8.226;2023-02-13T07:45:55;4.60;99.90
18894;DHT22;9579;49.488;8.226;2023-02-13T07:48:43;4.90;99.90
18894;DHT22;9579;49.488;8.226;2023-02-13T07:51:30;5.10;99.90
18894;DHT22;9579;49.488;8.226;2023-02-13T07:54:17;5.40;99.90
18894;DHT22;9579;49.488;8.226;2023-02-13T07:57:04;5.70;99.90
18894;DHT22;9579;49.488;8.226;2023-02-13T07:59:51;5.90;99.90
18894;DHT22;9579;49.488;8.226;2023-02-13T08:02:40;6.10;99.90
18894;DHT22;9579;49.488;8.226;2023-02-13T08:05:28;6.30;99.90
18894;DHT22;9579;49.488;8.226;2023-02-13T08:08:16;6.40;99.90
18894;DHT22;9579;49.488;8.226;2023-02-13T08:11:04;6.60;99.90
18894;DHT22;9579;49.488;8.226;2023-02-13T08:14:10;6.70;99.90
18894;DHT22;9579;49.488;8.226;2023-02-13T08:16:58;7.00;99.90
18894;DHT22;9579;49.488;8.226;2023-02-13T08:19:47;7.20;99.90
18894;DHT22;9579;49.488;8.226;2023-02-13T08:22:35;7.50;99.90
18894;DHT22;9579;49.488;8.226;2023-02-13T08:25:22;8.00;99.90
18894;DHT22;9579;49.488;8.226;2023-02-13T08:28:09;8.10;99.90
18894;DHT22;9579;49.488;8.226;2023-02-13T08:30:56;8.30;99.90
18894;DHT22;9579;49.488;8.226;2023-02-13T08:33:43;8.50;99.90
18894;DHT22;9579;49.488;8.226;2023-02-13T08:36:32;8.60;99.90
18894;DHT22;9579;49.488;8.226;2023-02-13T08:39:19;8.70;99.90
18894;DHT22;9579;49.488;8.226;2023-02-13T08:42:06;9.00;99.90
18894;DHT22;9579;49.488;8.226;2023-02-13T08:44:53;9.10;99.90
18894;DHT22;9579;49.488;8.226;2023-02-13T08:47:40;9.30;99.90
18894;DHT22;9579;49.488;8.226;2023-02-13T08:50:27;9.50;99.90
18894;DHT22;9579;49.488;8.226;2023-02-13T08:53:16;9.60;99.90
18894;DHT22;9579;49.488;8.226;2023-02-13T08:56:03;9.90;99.90
18894;DHT22;9579;49.488;8.226;2023-02-13T08:58:50;10.00;99.90
18894;DHT22;9579;49.488;8.226;2023-02-13T09:01:37;10.20;99.90
18894;DHT22;9579;49.488;8.226;2023-02-13T09:04:24;10.40;99.90
18894;DHT22;9579;49.488;8.226;2023-02-13T09:07:12;10.60;99.90
18894;DHT22;9579;49.488;8.226;2023-02-13T09:10:01;11.00;99.90
18894;DHT22;9579;49.488;8.226;2023-02-13T09:12:51;11.30;99.90
18894;DHT22;9579;49.488;8.226;2023-02-13T09:15:39;11.60;99.90
18894;DHT22;9579;49.488;8.226;2023-02-13T09:18:26;11.80;99.90
18894;DHT22;9579;49.488;8.226;2023-02-13T09:21:13;12.00;99.80
18894;DHT22;9579;49.488;8.226;2023-02-13T09:24:00;12.20;99.50
18894;DHT22;9579;49.488;8.226;2023-02-13T09:26:49;12.40;99.40
18894;DHT22;9579;49.488;8.226;2023-02-13T09:29:36;12.60;99.10
18894;DHT22;9579;49.488;8.226;2023-02-13T09:32:23;12.80;98.90
18894;DHT22;9579;49.488;8.226;2023-02-13T09:35:10;12.90;98.70
18894;DHT22;9579;49.488;8.226;2023-02-13T09:37:59;13.00;98.50
18894;DHT22;9579;49.488;8.226;2023-02-13T09:40:49;13.10;98.30
18894;DHT22;9579;49.488;8.226;2023-02-13T09:43:44;13.20;98.40
18894;DHT22;9579;49.488;8.226;2023-02-13T09:46:34;13.20;98.20
18894;DHT22;9579;49.488;8.226;2023-02-13T09:49:25;13.10;98.20
18894;DHT22;9579;49.488;8.226;2023-02-13T09:52:16;13.40;98.40
18894;DHT22;9579;49.488;8.226;2023-02-13T09:55:13;13.60;98.20
18894;DHT22;9579;49.488;8.226;2023-02-13T09:58:08;13.70;98.00
18894;DHT22;9579;49.488;8.226;2023-02-13T10:00:59;13.80;97.90
18894;DHT22;9579;49.488;8.226;2023-02-13T10:03:53;13.70;97.10
18894;DHT22;9579;49.488;8.226;2023-02-13T10:06:45;13.50;97.40
18894;DHT22;9579;49.488;8.226;2023-02-13T10:09:41;13.60;98.00
18894;DHT22;9579;49.488;8.226;2023-02-13T10:12:45;13.50;97.50
18894;DHT22;9579;49.488;8.226;2023-02-13T10:15:41;13.60;97.60
18894;DHT22;9579;49.488;8.226;2023-02-13T10:18:42;13.40;97.70
18894;DHT22;9579;49.488;8.226;2023-02-13T10:21:34;13.40;98.10
18894;DHT22;9579;49.488;8.226;2023-02-13T10:24:29;13.20;97.60
18894;DHT22;9579;49.488;8.226;2023-02-13T10:27:22;13.20;98.20
18894;DHT22;9579;49.488;8.226;2023-02-13T10:30:17;13.20;97.50
18894;DHT22;9579;49.488;8.226;2023-02-13T10:33:09;13.00;98.30
18894;DHT22;9579;49.488;8.226;2023-02-13T10:36:15;12.90;98.40
18894;DHT22;9579;49.488;8.226;2023-02-13T10:39:17;13.10;97.70
18894;DHT22;9579;49.488;8.226;2023-02-13T10:42:15;13.20;97.60
18894;DHT22;9579;49.488;8.226;2023-02-13T10:45:20;13.30;97.30
18894;DHT22;9579;49.488;8.226;2023-02-13T10:48:25;13.50;97.00
18894;DHT22;9579;49.488;8.226;2023-02-13T10:51:20;13.70;97.10
18894;DHT22;9579;49.488;8.226;2023-02-13T10:54:23;13.90;96.80
18894;DHT22;9579;49.488;8.226;2023-02-13T10:57:13;14.00;96.20
18894;DHT22;9579;49.488;8.226;2023-02-13T11:00:07;13.70;96.40
18894;DHT22;9579;49.488;8.226;2023-02-13T11:02:56;13.80;96.60
18894;DHT22;9579;49.488;8.226;2023-02-13T11:05:44;14.00;96.60
18894;DHT22;9579;49.488;8.226;2023-02-13T11:08:34;14.30;96.70
18894;DHT22;9579;49.488;8.226;2023-02-13T11:11:28;14.40;96.40
18894;DHT22;9579;49.488;8.226;2023-02-13T11:14:18;14.50;96.40
18894;DHT22;9579;49.488;8.226;2023-02-13T11:17:11;14.50;96.30
18894;DHT22;9579;49.488;8.226;2023-02-13T11:20:03;14.80;96.20
18894;DHT22;9579;49.488;8.226;2023-02-13T11:22:52;15.00;95.70
18894;DHT22;9579;49.488;8.226;2023-02-13T11:25:40;15.30;96.00
18894;DHT22;9579;49.488;8.226;2023-02-13T11:28:30;15.40;95.30
18894;DHT22;9579;49.488;8.226;2023-02-13T11:31:22;15.50;94.30
18894;DHT22;9579;49.488;8.226;2023-02-13T11:34:24;15.40;94.10
18894;DHT22;9579;49.488;8.226;2023-02-13T11:37:17;15.40;94.50
18894;DHT22;9579;49.488;8.226;2023-02-13T11:40:29;15.30;94.00
18894;DHT22;9579;49.488;8.226;2023-02-13T11:43:26;15.20;94.30
18894;DHT22;9579;49.488;8.226;2023-02-13T11:46:17;15.20;95.00
18894;DHT22;9579;49.488;8.226;2023-02-13T11:49:14;15.30;95.20
18894;DHT22;9579;49.488;8.226;2023-02-13T11:52:04;15.30;94.20
18894;DHT22;9579;49.488;8.226;2023-02-13T11:54:56;15.50;94.30
18894;DHT22;9579;49.488;8.226;2023-02-13T11:57:55;15.60;93.80
18894;DHT22;9579;49.488;8.226;2023-02-13T12:00:44;15.80;93.60
18894;DHT22;9579;49.488;8.226;2023-02-13T12:03:32;16.00;93.90
18894;DHT22;9579;49.488;8.226;2023-02-13T12:06:19;16.00;93.30
18894;DHT22;9579;49.488;8.226;2023-02-13T12:09:11;16.00;92.90
18894;DHT22;9579;49.488;8.226;2023-02-13T12:12:01;16.10;93.80
18894;DHT22;9579;49.488;8.226;2023-02-13T12:14:50;16.00;93.10
18894;DHT22;9579;49.488;8.226;2023-02-13T12:17:42;16.20;93.40
18894;DHT22;9579;49.488;8.226;2023-02-13T12:20:37;16.50;93.30
18894;DHT22;9579;49.488;8.226;2023-02-13T12:23:36;16.70;92.70
18894;DHT22;9579;49.488;8.226;2023-02-13T12:26:30;17.00;92.60
18894;DHT22;9579;49.488;8.226;2023-02-13T12:29:33;17.20;91.70
18894;DHT22;9579;49.488;8.226;2023-02-13T12:32:31;17.20;90.90
18894;DHT22;9579;49.488;8.226;2023-02-13T12:35:38;17.00;92.10
18894;DHT22;9579;49.488;8.226;2023-02-13T12:38:48;17.00;91.40
18894;DHT22;9579;49.488;8.226;2023-02-13T12:41:48;17.00;91.70
18894;DHT22;9579;49.488;8.226;2023-02-13T12:44:55;17.20;91.40
18894;DHT22;9579;49.488;8.226;2023-02-13T12:47:59;17.40;91.40
18894;DHT22;9579;49.488;8.226;2023-02-13T12:51:01;17.70;90.70
18894;DHT22;9579;49.488;8.226;2023-02-13T12:54:14;17.80;90.80
18894;DHT22;9579;49.488;8.226;2023-02-13T12:57:28;17.90;90.30
18894;DHT22;9579;49.488;8.226;2023-02-13T13:00:28;17.80;88.90
18894;DHT22;9579;49.488;8.226;2023-02-13T13:03:30;17.80;90.40
18894;DHT22;9579;49.488;8.226;2023-02-13T13:06:38;18.10;90.00
18894;DHT22;9579;49.488;8.226;2023-02-13T13:09:44;18.60;88.30
18894;DHT22;9579;49.488;8.226;2023-02-13T13:12:43;18.70;88.50
18894;DHT22;9579;49.488;8.226;2023-02-13T13:15:38;18.90;88.00
18894;DHT22;9579;49.488;8.226;2023-02-13T13:18:34;19.20;86.50
18894;DHT22;9579;49.488;8.226;2023-02-13T13:21:36;19.40;86.00
18894;DHT22;9579;49.488;8.226;2023-02-13T13:24:40;19.50;85.40
18894;DHT22;9579;49.488;8.226;2023-02-13T13:27:32;19.50;85.70
18894;DHT22;9579;49.488;8.226;2023-02-13T13:30:22;19.50;84.20
18894;DHT22;9579;49.488;8.226;2023-02-13T13:33:15;19.60;83.20
18894;DHT22;9579;49.488;8.226;2023-02-13T13:36:08;19.70;82.60
18894;DHT22;9579;49.488;8.226;2023-02-13T13:39:05;19.60;83.70
18894;DHT22;9579;49.488;8.226;2023-02-13T13:41:56;19.70;84.60
18894;DHT22;9579;49.488;8.226;2023-02-13T13:45:07;20.00;84.20
18894;DHT22;9579;49.488;8.226;2023-02-13T13:48:13;20.40;84.20
18894;DHT22;9579;49.488;8.226;2023-02-13T13:51:04;20.60;81.10
18894;DHT22;9579;49.488;8.226;2023-02-13T13:54:31;20.70;80.40
18894;DHT22;9579;49.488;8.226;2023-02-13T13:57:21;20.90;81.10
18894;DHT22;9579;49.488;8.226;2023-02-13T14:00:24;21.30;79.60
18894;DHT22;9579;49.488;8.226;2023-02-13T14:03:21;21.60;79.00
18894;DHT22;9579;49.488;8.226;2023-02-13T14:06:10;21.90;78.00
18894;DHT22;9579;49.488;8.226;2023-02-13T14:12:37;22.30;76.40
18894;DHT22;9579;49.488;8.226;2023-02-13T14:15:51;22.60;75.70
18894;DHT22;9579;49.488;8.226;2023-02-13T14:18:44;22.90;75.40
18894;DHT22;9579;49.488;8.226;2023-02-13T14:21:32;23.20;74.10
18894;DHT22;9579;49.488;8.226;2023-02-13T14:24:21;23.40;72.60
18894;DHT22;9579;49.488;8.226;2023-02-13T14:27:20;23.60;71.00
18894;DHT22;9579;49.488;8.226;2023-02-13T14:30:25;23.60;70.80
18894;DHT22;9579;49.488;8.226;2023-02-13T14:33:24;23.70;70.40
18894;DHT22;9579;49.488;8.226;2023-02-13T14:36:20;23.80;69.90
18894;DHT22;9579;49.488;8.226;2023-02-13T14:39:23;23.70;70.60
18894;DHT22;9579;49.488;8.226;2023-02-13T14:42:23;24.00;70.10
18894;DHT22;9579;49.488;8.226;2023-02-13T14:45:14;24.10;68.20
18894;DHT22;9579;49.488;8.226;2023-02-13T14:48:07;23.90;67.80
18894;DHT22;9579;49.488;8.226;2023-02-13T14:50:57;23.50;69.30
18894;DHT22;9579;49.488;8.226;2023-02-13T14:53:49;23.10;69.30
18894;DHT22;9579;49.488;8.226;2023-02-13T14:56:38;22.70;70.20
18894;DHT22;9579;49.488;8.226;2023-02-13T14:59:29;22.30;71.10
18894;DHT22;9579;49.488;8.226;2023-02-13T15:02:22;22.00;70.80
18894;DHT22;9579;49.488;8.226;2023-02-13T15:05:13;21.50;71.40
18894;DHT22;9579;49.488;8.226;2023-02-13T15:08:05;21.00;72.80
18894;DHT22;9579;49.488;8.226;2023-02-13T15:10:57;20.70;73.70
18894;DHT22;9579;49.488;8.226;2023-02-13T15:13:44;20.60;74.60
18894;DHT22;9579;49.488;8.226;2023-02-13T15:16:31;20.60;74.50
18894;DHT22;9579;49.488;8.226;2023-02-13T15:19:20;20.60;76.30
18894;DHT22;9579;49.488;8.226;2023-02-13T15:22:17;19.30;77.30
18894;DHT22;9579;49.488;8.226;2023-02-13T15:25:19;19.60;78.60
18894;DHT22;9579;49.488;8.226;2023-02-13T15:41:56;16.60;83.90
18894;DHT22;9579;49.488;8.226;2023-02-13T15:44:46;16.30;85.00
18894;DHT22;9579;49.488;8.226;2023-02-13T15:47:34;16.00;86.40
18894;DHT22;9579;49.488;8.226;2023-02-13T15:50:27;15.70;87.40
18894;DHT22;9579;49.488;8.226;2023-02-13T16:03:39;14.90;90.40
18894;DHT22;9579;49.488;8.226;2023-02-13T16:06:28;14.70;90.80
18894;DHT22;9579;49.488;8.226;2023-02-13T16:09:23;14.50;91.30
18894;DHT22;9579;49.488;8.226;2023-02-13T16:12:21;14.40;91.60
18894;DHT22;9579;49.488;8.226;2023-02-13T16:15:14;14.20;91.90
18894;DHT22;9579;49.488;8.226;2023-02-13T16:18:03;14.00;92.30
18894;DHT22;9579;49.488;8.226;2023-02-13T16:20:54;13.90;92.50
18894;DHT22;9579;49.488;8.226;2023-02-13T16:23:43;13.70;92.80
18894;DHT22;9579;49.488;8.226;2023-02-13T16:26:30;13.50;92.90
18894;DHT22;9579;49.488;8.226;2023-02-13T16:29:19;13.40;93.30
18894;DHT22;9579;49.488;8.226;2023-02-13T16:32:15;13.20;93.50
18894;DHT22;9579;49.488;8.226;2023-02-13T16:35:26;13.10;94.00
18894;DHT22;9579;49.488;8.226;2023-02-13T16:38:28;12.90;94.20
18894;DHT22;9579;49.488;8.226;2023-02-13T16:41:31;12.70;94.30
18894;DHT22;9579;49.488;8.226;2023-02-13T16:44:23;12.60;94.60
18894;DHT22;9579;49.488;8.226;2023-02-13T16:47:18;12.30;95.00
18894;DHT22;9579;49.488;8.226;2023-02-13T16:50:13;12.20;95.20
18894;DHT22;9579;49.488;8.226;2023-02-13T16:53:01;12.10;95.50
18894;DHT22;9579;49.488;8.226;2023-02-13T16:55:58;11.90;95.30
18894;DHT22;9579;49.488;8.226;2023-02-13T16:58:46;11.80;95.50
18894;DHT22;9579;49.488;8.226;2023-02-13T17:01:33;11.60;95.50
18894;DHT22;9579;49.488;8.226;2023-02-13T17:04:24;11.50;95.70
18894;DHT22;9579;49.488;8.226;2023-02-13T17:07:12;11.40;95.90
18894;DHT22;9579;49.488;8.226;2023-02-13T17:10:01;11.30;95.80
18894;DHT22;9579;49.488;8.226;2023-02-13T17:12:50;11.00;96.00
18894;DHT22;9579;49.488;8.226;2023-02-13T17:15:41;10.90;96.20
18894;DHT22;9579;49.488;8.226;2023-02-13T17:18:28;10.90;96.40
18894;DHT22;9579;49.488;8.226;2023-02-13T17:21:15;10.70;96.30
18894;DHT22;9579;49.488;8.226;2023-02-13T17:24:03;10.60;96.60
18894;DHT22;9579;49.488;8.226;2023-02-13T17:26:51;10.50;96.70
18894;DHT22;9579;49.488;8.226;2023-02-13T17:29:39;10.40;96.70
18894;DHT22;9579;49.488;8.226;2023-02-13T17:32:26;10.20;97.00
18894;DHT22;9579;49.488;8.226;2023-02-13T17:35:14;10.00;97.30
18894;DHT22;9579;49.488;8.226;2023-02-13T17:38:01;9.90;98.20
18894;DHT22;9579;49.488;8.226;2023-02-13T17:40:49;9.90;98.40
18894;DHT22;9579;49.488;8.226;2023-02-13T17:43:36;9.90;98.50
18894;DHT22;9579;49.488;8.226;2023-02-13T17:46:25;9.80;98.70
18894;DHT22;9579;49.488;8.226;2023-02-13T17:49:12;9.70;98.70
18894;DHT22;9579;49.488;8.226;2023-02-13T17:51:59;9.70;98.90
18894;DHT22;9579;49.488;8.226;2023-02-13T17:54:47;9.70;98.90
18894;DHT22;9579;49.488;8.226;2023-02-13T17:57:34;9.60;98.90
18894;DHT22;9579;49.488;8.226;2023-02-13T18:00:22;9.60;98.60
18894;DHT22;9579;49.488;8.226;2023-02-13T18:03:11;9.60;98.80
18894;DHT22;9579;49.488;8.226;2023-02-13T18:05:58;9.40;99.00
18894;DHT22;9579;49.488;8.226;2023-02-13T18:08:46;9.30;99.00
18894;DHT22;9579;49.488;8.226;2023-02-13T18:11:33;9.30;99.30
18894;DHT22;9579;49.488;8.226;2023-02-13T18:14:19;9.30;99.10
18894;DHT22;9579;49.488;8.226;2023-02-13T18:17:07;9.20;98.90
18894;DHT22;9579;49.488;8.226;2023-02-13T18:19:56;9.10;98.90
18894;DHT22;9579;49.488;8.226;2023-02-13T18:22:43;9.00;99.00
18894;DHT22;9579;49.488;8.226;2023-02-13T18:25:30;8.80;99.30
18894;DHT22;9579;49.488;8.226;2023-02-13T18:28:17;8.80;99.30
18894;DHT22;9579;49.488;8.226;2023-02-13T18:31:07;8.70;99.30
18894;DHT22;9579;49.488;8.226;2023-02-13T18:33:55;8.70;99.40
18894;DHT22;9579;49.488;8.226;2023-02-13T18:36:43;8.60;98.90
18894;DHT22;9579;49.488;8.226;2023-02-13T18:39:30;8.40;99.60
18894;DHT22;9579;49.488;8.226;2023-02-13T18:42:17;8.40;99.80
18894;DHT22;9579;49.488;8.226;2023-02-13T18:45:05;8.30;99.60
18894;DHT22;9579;49.488;8.226;2023-02-13T18:47:52;8.30;99.70
18894;DHT22;9579;49.488;8.226;2023-02-13T18:50:40;8.20;99.70
18894;DHT22;9579;49.488;8.226;2023-02-13T18:53:29;8.10;99.90
18894;DHT22;9579;49.488;8.226;2023-02-13T18:56:16;8.10;99.90
18894;DHT22;9579;49.488;8.226;2023-02-13T18:59:04;8.00;99.90
18894;DHT22;9579;49.488;8.226;2023-02-13T19:01:51;8.00;99.90
18894;DHT22;9579;49.488;8.226;2023-02-13T19:04:39;7.90;99.90
18894;DHT22;9579;49.488;8.226;2023-02-13T19:07:26;7.90;99.90
18894;DHT22;9579;49.488;8.226;2023-02-13T19:10:14;7.80;99.90
18894;DHT22;9579;49.488;8.226;2023-02-13T19:13:01;7.90;99.90
18894;DHT22;9579;49.488;8.226;2023-02-13T19:15:48;7.80;99.90
18894;DHT22;9579;49.488;8.226;2023-02-13T19:18:36;7.70;99.50
18894;DHT22;9579;49.488;8.226;2023-02-13T19:21:29;7.50;99.90
18894;DHT22;9579;49.488;8.226;2023-02-13T19:24:16;7.40;99.90
18894;DHT22;9579;49.488;8.226;2023-02-13T19:27:04;7.40;99.90
18894;DHT22;9579;49.488;8.226;2023-02-13T19:29:51;7.30;99.90
18894;DHT22;9579;49.488;8.226;2023-02-13T19:32:38;7.20;99.90
18894;DHT22;9579;49.488;8.226;2023-02-13T19:35:26;7.20;99.90
18894;DHT22;9579;49.488;8.226;2023-02-13T19:38:13;7.10;99.90
18894;DHT22;9579;49.488;8.226;2023-02-13T19:41:02;7.10;99.90
18894;DHT22;9579;49.488;8.226;2023-02-13T19:43:50;7.10;99.90
18894;DHT22;9579;49.488;8.226;2023-02-13T19:46:38;7.20;99.90
18894;DHT22;9579;49.488;8.226;2023-02-13T19:49:25;7.30;99.90
18894;DHT22;9579;49.488;8.226;2023-02-13T19:52:12;7.20;99.90
18894;DHT22;9579;49.488;8.226;2023-02-13T19:54:59;7.10;99.90
18894;DHT22;9579;49.488;8.226;2023-02-13T19:57:46;7.10;99.90
18894;DHT22;9579;49.488;8.226;2023-02-13T20:00:35;7.00;99.90
18894;DHT22;9579;49.488;8.226;2023-02-13T20:03:22;7.00;99.90
18894;DHT22;9579;49.488;8.226;2023-02-13T20:06:12;6.90;99.90
18894;DHT22;9579;49.488;8.226;2023-02-13T20:09:00;6.80;99.90
18894;DHT22;9579;49.488;8.226;2023-02-13T20:11:47;6.70;99.90
18894;DHT22;9579;49.488;8.226;2023-02-13T20:14:35;6.70;99.90
18894;DHT22;9579;49.488;8.226;2023-02-13T20:17:23;6.70;99.90
18894;DHT22;9579;49.488;8.226;2023-02-13T20:20:11;6.70;99.90
18894;DHT22;9579;49.488;8.226;2023-02-13T20:22:58;6.70;99.90
18894;DHT22;9579;49.488;8.226;2023-02-13T20:25:45;6.60;99.90
18894;DHT22;9579;49.488;8.226;2023-02-13T20:28:32;6.50;99.90
18894;DHT22;9579;49.488;8.226;2023-02-13T20:31:20;6.40;99.90
18894;DHT22;9579;49.488;8.226;2023-02-13T20:34:09;6.40;99.90
18894;DHT22;9579;49.488;8.226;2023-02-13T20:36:56;6.30;99.90
18894;DHT22;9579;49.488;8.226;2023-02-13T20:39:43;6.20;99.90
18894;DHT22;9579;49.488;8.226;2023-02-13T20:42:31;6.10;99.90
18894;DHT22;9579;49.488;8.226;2023-02-13T20:45:19;6.00;99.90
18894;DHT22;9579;49.488;8.226;2023-02-13T20:48:06;6.00;99.90
18894;DHT22;9579;49.488;8.226;2023-02-13T20:50:57;6.00;99.90
18894;DHT22;9579;49.488;8.226;2023-02-13T20:53:45;6.10;99.90
18894;DHT22;9579;49.488;8.226;2023-02-13T20:56:33;6.10;99.90
18894;DHT22;9579;49.488;8.226;2023-02-13T20:59:20;6.20;99.90
18894;DHT22;9579;49.488;8.226;2023-02-13T21:02:08;6.20;99.90
18894;DHT22;9579;49.488;8.226;2023-02-13T21:04:56;6.20;99.90
18894;DHT22;9579;49.488;8.226;2023-02-13T21:07:44;6.30;99.90
18894;DHT22;9579;49.488;8.226;2023-02-13T21:10:32;6.30;99.90
18894;DHT22;9579;49.488;8.226;2023-02-13T21:13:19;6.40;99.90
18894;DHT22;9579;49.488;8.226;2023-02-13T21:16:09;6.40;99.90
18894;DHT22;9579;49.488;8.226;2023-02-13T21:18:58;6.40;99.90
18894;DHT22;9579;49.488;8.226;2023-02-13T21:21:45;6.40;99.90
18894;DHT22;9579;49.488;8.226;2023-02-13T21:24:33;6.40;99.90
18894;DHT22;9579;49.488;8.226;2023-02-13T21:27:20;6.40;99.90
18894;DHT22;9579;49.488;8.226;2023-02-13T21:30:09;6.40;99.90
18894;DHT22;9579;49.488;8.226;2023-02-13T21:32:56;6.40;99.90
18894;DHT22;9579;49.488;8.226;2023-02-13T21:35:43;6.40;99.90
18894;DHT22;9579;49.488;8.226;2023-02-13T21:38:30;6.40;99.90
18894;DHT22;9579;49.488;8.226;2023-02-13T21:41:18;6.40;99.90
18894;DHT22;9579;49.488;8.226;2023-02-13T21:44:06;6.50;99.90
18894;DHT22;9579;49.488;8.226;2023-02-13T21:46:53;6.40;99.90
18894;DHT22;9579;49.488;8.226;2023-02-13T21:49:40;6.40;99.90
18894;DHT22;9579;49.488;8.226;2023-02-13T21:52:27;6.40;99.90
18894;DHT22;9579;49.488;8.226;2023-02-13T21:55:14;6.40;99.90
18894;DHT22;9579;49.488;8.226;2023-02-13T21:58:02;6.40;99.90
18894;DHT22;9579;49.488;8.226;2023-02-13T22:00:49;6.40;99.90
18894;DHT22;9579;49.488;8.226;2023-02-13T22:06:02;6.40;99.90
18894;DHT22;9579;49.488;8.226;2023-02-13T22:08:55;6.30;99.90
18894;DHT22;9579;49.488;8.226;2023-02-13T22:11:43;5.80;99.90
18894;DHT22;9579;49.488;8.226;2023-02-13T22:14:37;7.00;99.90
18894;DHT22;9579;49.488;8.226;2023-02-13T22:17:28;6.70;99.90
18894;DHT22;9579;49.488;8.226;2023-02-13T22:20:21;7.10;99.90
18894;DHT22;9579;49.488;8.226;2023-02-13T22:25:46;6.40;99.90
18894;DHT22;9579;49.488;8.226;2023-02-13T22:31:15;6.40;99.90
18894;DHT22;9579;49.488;8.226;2023-02-13T22:36:41;6.40;99.90
18894;DHT22;9579;49.488;8.226;2023-02-13T22:39:37;6.40;99.90
18894;DHT22;9579;49.488;8.226;2023-02-13T22:42:30;6.30;99.90
18894;DHT22;9579;49.488;8.226;2023-02-13T22:45:19;8.00;99.90
18894;DHT22;9579;49.488;8.226;2023-02-13T22:50:45;6.40;99.90
18894;DHT22;9579;49.488;8.226;2023-02-13T22:53:38;6.60;99.90
18894;DHT22;9579;49.488;8.226;2023-02-13T22:56:28;6.30;99.90
18894;DHT22;9579;49.488;8.226;2023-02-13T22:59:17;6.90;99.90
18894;DHT22;9579;49.488;8.226;2023-02-13T23:04:35;6.50;99.90
18894;DHT22;9579;49.488;8.226;2023-02-13T23:07:24;6.50;99.90
18894;DHT22;9579;49.488;8.226;2023-02-13T23:10:11;6.50;99.90
18894;DHT22;9579;49.488;8.226;2023-02-13T23:12:58;6.40;99.90
18894;DHT22;9579;49.488;8.226;2023-02-13T23:15:44;6.40;99.90
18894;DHT22;9579;49.488;8.226;2023-02-13T23:18:33;6.30;99.90
18894;DHT22;9579;49.488;8.226;2023-02-13T23:21:19;6.20;99.90
18894;DHT22;9579;49.488;8.226;2023-02-13T23:24:08;6.20;99.90
18894;DHT22;9579;49.488;8.226;2023-02-13T23:26:55;6.10;99.90
18894;DHT22;9579;49.488;8.226;2023-02-13T23:29:42;6.00;99.90
